Time;durP1;ratioP1;P1;durP2;ratioP2;P2;SDS_P1;SDS_P2;PMS_P1;PMS_P2;Temp;Humidity;BMP_temperature;BMP_pressure;BME280_temperature;BME280_humidity;BME280_pressure;Samples;Min_cycle;Max_cycle;Signal;HPM_P1;HPM_P2
2022/01/24 00:00:27;;;;;;;45.33;30.85;;;;;;;;;;4990705;28;20042;-69
2022/01/24 00:02:52;;;;;;;45.25;29.30;;;;;;;;;;4987430;28;20038;-69
2022/01/24 00:05:20;;;;;;;41.53;28.25;;;;;;;;;;4986970;28;20545;-69
2022/01/24 00:07:46;;;;;;;43.53;29.48;;;;;;;;;;4986962;28;20409;-69
2022/01/24 00:10:17;;;;;;;44.03;29.63;;;;;;;;;;4986139;28;20037;-69
2022/01/24 00:13:00;;;;;;;42.17;28.08;;;;;;;;;;4990368;28;21200;-69
2022/01/24 00:18:11;;;;;;;36.58;26.30;;;;;;;;;;4986426;28;20110;-69
2022/01/24 00:28:49;;;;;;;34.03;23.45;;;;;;;;;;4990294;28;20546;-69
2022/01/24 00:31:14;;;;;;;29.75;21.25;;;;;;;;;;4967690;28;21888;-69
2022/01/24 00:33:41;;;;;;;30.45;20.65;;;;;;;;;;4989080;28;20042;-69
2022/01/24 00:36:07;;;;;;;29.02;21.08;;;;;;;;;;4990780;28;20040;-69
2022/01/24 00:38:33;;;;;;;30.15;20.48;;;;;;;;;;4988160;28;20038;-70
2022/01/24 00:40:58;;;;;;;29.60;21.10;;;;;;;;;;4989941;28;20037;-69
2022/01/24 00:43:35;;;;;;;31.77;21.05;;;;;;;;;;4989228;28;20041;-70
2022/01/24 00:46:07;;;;;;;33.40;22.92;;;;;;;;;;4990192;28;20478;-70
2022/01/24 00:49:21;;;;;;;31.40;21.70;;;;;;;;;;4990477;28;20710;-70
2022/01/24 00:56:58;;;;;;;24.52;18.02;;;;;;;;;;4989882;28;20025;-70
2022/01/24 00:59:25;;;;;;;26.83;18.50;;;;;;;;;;4977280;28;20505;-71
2022/01/24 01:01:52;;;;;;;27.42;19.40;;;;;;;;;;4989340;28;20037;-70
2022/01/24 01:04:28;;;;;;;29.38;20.25;;;;;;;;;;4988401;28;20048;-70
2022/01/24 01:06:55;;;;;;;27.75;18.85;;;;;;;;;;4989723;28;20362;-69
2022/01/24 01:20:24;;;;;;;24.55;16.25;;;;;;;;;;4989311;28;20025;-69
2022/01/24 01:22:49;;;;;;;25.17;17.80;;;;;;;;;;4989247;28;20030;-69
2022/01/24 01:25:15;;;;;;;24.88;17.42;;;;;;;;;;4988815;28;20065;-70
2022/01/24 01:27:46;;;;;;;25.63;18.48;;;;;;;;;;4987402;28;20029;-70
2022/01/24 01:30:19;;;;;;;27.17;19.02;;;;;;;;;;4989855;28;20438;-69
2022/01/24 01:38:16;;;;;;;26.77;18.95;;;;;;;;;;4992603;28;20478;-70
2022/01/24 01:56:46;;;;;;;26.00;18.55;;;;;;;;;;4992637;28;20029;-69
2022/01/24 01:59:14;;;;;;;31.52;19.92;;;;;;;;;;4986889;28;20041;-69
2022/01/24 02:01:42;;;;;;;28.65;20.52;;;;;;;;;;4987208;28;20518;-71
2022/01/24 02:04:10;;;;;;;26.95;19.33;;;;;;;;;;4988907;28;20102;-69
2022/01/24 02:06:38;;;;;;;30.13;21.73;;;;;;;;;;4982963;28;20567;-69
2022/01/24 02:09:05;;;;;;;25.98;20.08;;;;;;;;;;4991795;28;20230;-69
2022/01/24 02:11:31;;;;;;;28.55;20.83;;;;;;;;;;4992052;28;20026;-69
2022/01/24 02:14:07;;;;;;;29.48;21.77;;;;;;;;;;4988336;28;20092;-70
2022/01/24 02:16:44;;;;;;;32.20;21.65;;;;;;;;;;4988720;28;20049;-70
2022/01/24 02:24:32;;;;;;;28.50;19.55;;;;;;;;;;4987027;28;20039;-70
2022/01/24 02:26:59;;;;;;;27.63;19.70;;;;;;;;;;4988097;28;20065;-70
2022/01/24 02:29:45;;;;;;;28.00;19.88;;;;;;;;;;4987968;28;21980;-68
2022/01/24 02:32:12;;;;;;;29.95;20.83;;;;;;;;;;4987665;28;20288;-69
2022/01/24 02:34:44;;;;;;;36.35;22.77;;;;;;;;;;4987510;28;20046;-69
2022/01/24 02:37:19;;;;;;;33.28;21.67;;;;;;;;;;4987652;28;20479;-69
2022/01/24 02:39:53;;;;;;;35.08;23.13;;;;;;;;;;4992135;28;20120;-69
2022/01/24 02:50:23;;;;;;;34.92;22.98;;;;;;;;;;4988000;28;20029;-70
2022/01/24 02:52:49;;;;;;;32.00;21.73;;;;;;;;;;4987536;28;20559;-69
2022/01/24 02:55:17;;;;;;;30.85;21.80;;;;;;;;;;4986970;28;20037;-70
2022/01/24 02:57:44;;;;;;;31.58;21.17;;;;;;;;;;4988351;28;20458;-69
2022/01/24 03:00:10;;;;;;;30.92;21.98;;;;;;;;;;4988364;28;20515;-69
2022/01/24 03:02:35;;;;;;;28.48;20.90;;;;;;;;;;4992166;28;21823;-69
2022/01/24 03:05:01;;;;;;;31.40;21.67;;;;;;;;;;4974902;28;20038;-69
2022/01/24 03:07:30;;;;;;;31.48;21.77;;;;;;;;;;4987393;28;20821;-68
2022/01/24 03:09:56;;;;;;;31.65;21.30;;;;;;;;;;5001978;28;20112;-69
2022/01/24 03:12:40;;;;;;;30.50;21.45;;;;;;;;;;4987773;28;20036;-70
2022/01/24 03:15:06;;;;;;;31.55;21.52;;;;;;;;;;4987253;28;20064;-70
2022/01/24 03:17:31;;;;;;;29.02;19.92;;;;;;;;;;4987609;28;20360;-70
2022/01/24 03:19:56;;;;;;;31.45;20.40;;;;;;;;;;4965041;28;20033;-69
2022/01/24 03:22:24;;;;;;;29.85;21.10;;;;;;;;;;4986892;28;20034;-69
2022/01/24 03:24:49;;;;;;;30.17;21.15;;;;;;;;;;4987697;28;20042;-69
2022/01/24 03:27:17;;;;;;;29.33;20.88;;;;;;;;;;4987750;28;22489;-70
2022/01/24 03:29:42;;;;;;;31.45;22.42;;;;;;;;;;4987719;28;20026;-69
2022/01/24 03:32:08;;;;;;;29.30;21.20;;;;;;;;;;4985909;28;20157;-70
2022/01/24 03:34:33;;;;;;;31.20;21.02;;;;;;;;;;4986620;28;20040;-71
2022/01/24 03:36:58;;;;;;;30.20;21.35;;;;;;;;;;4985213;28;20031;-68
2022/01/24 03:39:24;;;;;;;31.08;21.00;;;;;;;;;;4987406;28;20128;-68
2022/01/24 03:41:49;;;;;;;29.92;21.85;;;;;;;;;;4986935;28;20046;-69
2022/01/24 03:44:18;;;;;;;32.85;21.52;;;;;;;;;;4988320;28;20118;-71
2022/01/24 03:46:49;;;;;;;32.05;21.92;;;;;;;;;;4986736;28;20360;-69
2022/01/24 03:49:45;;;;;;;30.75;21.05;;;;;;;;;;4990747;28;20045;-69
2022/01/24 03:52:04;;;;;;;30.92;22.05;;;;;;;;;;4987258;28;20038;-70
2022/01/24 03:54:29;;;;;;;29.90;21.50;;;;;;;;;;4984915;28;20057;-69
2022/01/24 03:56:55;;;;;;;31.13;21.50;;;;;;;;;;4990734;28;20466;-69
2022/01/24 03:59:21;;;;;;;31.77;22.33;;;;;;;;;;4978436;28;20067;-69
2022/01/24 04:01:46;;;;;;;31.58;21.48;;;;;;;;;;4984393;28;20033;-68
2022/01/24 04:04:14;;;;;;;29.88;21.48;;;;;;;;;;4990001;28;20052;-69
2022/01/24 04:06:39;;;;;;;29.67;21.65;;;;;;;;;;4990110;28;20139;-68
2022/01/24 04:09:07;;;;;;;30.85;21.38;;;;;;;;;;4990300;28;20122;-69
2022/01/24 04:11:38;;;;;;;29.95;19.98;;;;;;;;;;4995561;28;20446;-69
2022/01/24 04:14:24;;;;;;;28.75;20.42;;;;;;;;;;4990728;28;20030;-69
2022/01/24 04:17:04;;;;;;;30.20;20.15;;;;;;;;;;4978195;28;20038;-70
2022/01/24 04:22:17;;;;;;;30.25;18.65;;;;;;;;;;4994780;28;20033;-70
2022/01/24 04:24:44;;;;;;;28.60;18.73;;;;;;;;;;4990414;28;22258;-69
2022/01/24 04:27:10;;;;;;;27.63;19.42;;;;;;;;;;4989474;28;20091;-70
2022/01/24 04:29:40;;;;;;;28.80;19.02;;;;;;;;;;5005374;28;20040;-69
2022/01/24 04:32:05;;;;;;;26.55;18.02;;;;;;;;;;4989566;28;20050;-69
2022/01/24 04:34:31;;;;;;;27.38;18.55;;;;;;;;;;4989356;28;20071;-68
2022/01/24 04:36:59;;;;;;;29.02;19.05;;;;;;;;;;4989503;28;20041;-68
2022/01/24 04:39:24;;;;;;;30.63;19.23;;;;;;;;;;4989166;28;20036;-68
2022/01/24 04:41:55;;;;;;;27.77;18.45;;;;;;;;;;4990365;28;20090;-69
2022/01/24 04:44:52;;;;;;;28.98;19.10;;;;;;;;;;4990620;28;20104;-68
2022/01/24 04:47:38;;;;;;;28.63;18.33;;;;;;;;;;4989647;28;20053;-69
2022/01/24 04:53:11;;;;;;;27.85;17.45;;;;;;;;;;4989463;28;20122;-68
2022/01/24 04:55:31;;;;;;;28.00;18.00;;;;;;;;;;4990174;28;20463;-69
2022/01/24 04:57:58;;;;;;;27.85;16.75;;;;;;;;;;4990295;28;20029;-69
2022/01/24 05:00:24;;;;;;;27.27;17.23;;;;;;;;;;4990479;28;20126;-69
2022/01/24 05:02:49;;;;;;;25.27;16.58;;;;;;;;;;4988721;28;20172;-68
2022/01/24 05:05:19;;;;;;;27.42;18.45;;;;;;;;;;4989423;28;20647;-68
2022/01/24 05:07:44;;;;;;;25.95;17.20;;;;;;;;;;4989349;28;20034;-69
2022/01/24 05:10:19;;;;;;;28.23;17.80;;;;;;;;;;4992941;28;20030;-69
2022/01/24 05:23:30;;;;;;;26.88;17.35;;;;;;;;;;4988829;28;20073;-70
2022/01/24 05:25:58;;;;;;;29.90;18.38;;;;;;;;;;4988921;28;20576;-69
2022/01/24 05:28:26;;;;;;;30.15;18.08;;;;;;;;;;4989683;28;20228;-70
2022/01/24 05:30:59;;;;;;;28.05;17.40;;;;;;;;;;4989240;28;20081;-69
2022/01/24 05:33:27;;;;;;;27.27;17.92;;;;;;;;;;4992194;28;20097;-69
2022/01/24 05:35:56;;;;;;;30.65;19.25;;;;;;;;;;4988666;28;20026;-69
2022/01/24 05:38:22;;;;;;;31.05;19.13;;;;;;;;;;4989430;28;20415;-70
2022/01/24 05:40:50;;;;;;;28.73;17.45;;;;;;;;;;5003887;28;20041;-70
2022/01/24 05:43:20;;;;;;;28.42;18.60;;;;;;;;;;4989894;28;20270;-70
2022/01/24 05:45:46;;;;;;;29.83;18.83;;;;;;;;;;4988692;28;20068;-69
2022/01/24 05:48:11;;;;;;;31.63;18.60;;;;;;;;;;4987569;28;20042;-70
2022/01/24 05:50:39;;;;;;;30.88;18.85;;;;;;;;;;4988862;28;22057;-70
2022/01/24 05:53:04;;;;;;;27.70;18.33;;;;;;;;;;4988586;28;20025;-69
2022/01/24 05:55:29;;;;;;;30.25;19.00;;;;;;;;;;4989262;28;20034;-68
2022/01/24 05:57:58;;;;;;;31.40;19.75;;;;;;;;;;4988555;28;20042;-69
2022/01/24 06:00:23;;;;;;;30.70;19.70;;;;;;;;;;4988875;28;20718;-69
2022/01/24 06:02:49;;;;;;;35.72;19.85;;;;;;;;;;4987656;28;20092;-68
2022/01/24 06:05:17;;;;;;;32.25;19.17;;;;;;;;;;4988643;28;20052;-69
2022/01/24 06:07:44;;;;;;;33.70;20.27;;;;;;;;;;4988472;28;20037;-69
2022/01/24 06:10:10;;;;;;;37.75;20.83;;;;;;;;;;4983018;28;20037;-68
2022/01/24 06:12:35;;;;;;;33.33;20.30;;;;;;;;;;4988724;28;20054;-69
2022/01/24 06:15:01;;;;;;;31.05;19.45;;;;;;;;;;4987961;28;20033;-69
2022/01/24 06:17:27;;;;;;;32.70;20.13;;;;;;;;;;4991030;28;20022;-69
2022/01/24 06:19:52;;;;;;;32.47;20.08;;;;;;;;;;4975659;28;20022;-69
2022/01/24 06:22:20;;;;;;;34.55;21.25;;;;;;;;;;4987934;28;20508;-70
2022/01/24 06:24:47;;;;;;;35.55;21.23;;;;;;;;;;4991172;28;20072;-70
2022/01/24 06:27:15;;;;;;;34.95;21.58;;;;;;;;;;4987858;28;20025;-70
2022/01/24 06:29:41;;;;;;;30.30;19.50;;;;;;;;;;4987146;28;20529;-70
2022/01/24 06:32:06;;;;;;;34.28;19.83;;;;;;;;;;4987319;28;20223;-69
2022/01/24 06:34:31;;;;;;;34.05;20.25;;;;;;;;;;4987558;28;20041;-69
2022/01/24 06:36:57;;;;;;;31.63;19.80;;;;;;;;;;4986420;28;20096;-70
2022/01/24 06:39:22;;;;;;;35.03;20.38;;;;;;;;;;4986268;28;20026;-69
2022/01/24 06:42:08;;;;;;;33.22;20.58;;;;;;;;;;4988340;28;20196;-69
2022/01/24 06:44:36;;;;;;;36.20;21.23;;;;;;;;;;4988140;28;20029;-69
2022/01/24 06:47:04;;;;;;;31.55;19.55;;;;;;;;;;4988107;28;20030;-70
2022/01/24 06:49:31;;;;;;;34.85;21.27;;;;;;;;;;5002021;28;20534;-69
2022/01/24 06:51:56;;;;;;;34.53;21.08;;;;;;;;;;4986231;28;20674;-70
2022/01/24 06:54:22;;;;;;;36.30;21.00;;;;;;;;;;4987569;28;20036;-70
2022/01/24 06:56:49;;;;;;;34.53;20.95;;;;;;;;;;4987576;28;20034;-69
2022/01/24 06:59:15;;;;;;;36.25;21.42;;;;;;;;;;5002038;28;20058;-68
2022/01/24 07:01:40;;;;;;;37.65;21.38;;;;;;;;;;4991483;28;20141;-71
2022/01/24 07:04:06;;;;;;;40.55;21.85;;;;;;;;;;4987578;28;20030;-69
2022/01/24 07:06:33;;;;;;;38.88;23.83;;;;;;;;;;4987218;28;20193;-70
2022/01/24 07:08:59;;;;;;;42.80;25.52;;;;;;;;;;4988158;28;20134;-70
2022/01/24 07:11:26;;;;;;;42.42;26.35;;;;;;;;;;4975791;28;20132;-69
2022/01/24 07:13:54;;;;;;;42.92;24.02;;;;;;;;;;4990863;28;20022;-69
2022/01/24 07:16:19;;;;;;;41.40;23.88;;;;;;;;;;4987806;28;20448;-70
2022/01/24 07:18:58;;;;;;;41.72;23.92;;;;;;;;;;4987265;28;20048;-69
2022/01/24 07:21:24;;;;;;;45.83;25.98;;;;;;;;;;4986860;28;22606;-69
2022/01/24 07:23:49;;;;;;;43.92;24.20;;;;;;;;;;4987191;28;20026;-69
2022/01/24 07:26:14;;;;;;;48.38;24.70;;;;;;;;;;4987609;28;20034;-69
2022/01/24 07:28:40;;;;;;;43.25;24.77;;;;;;;;;;4964196;28;20030;-69
2022/01/24 07:31:08;;;;;;;42.38;24.23;;;;;;;;;;4993928;28;20064;-69
2022/01/24 07:33:37;;;;;;;47.38;25.83;;;;;;;;;;4992369;28;20045;-70
2022/01/24 07:36:03;;;;;;;44.85;25.65;;;;;;;;;;4993551;28;20711;-70
2022/01/24 07:38:31;;;;;;;46.65;26.08;;;;;;;;;;4994274;28;20037;-70
2022/01/24 07:40:57;;;;;;;49.08;26.60;;;;;;;;;;4993445;28;20524;-69
2022/01/24 07:43:25;;;;;;;44.78;26.13;;;;;;;;;;4993761;28;20045;-69
2022/01/24 07:45:52;;;;;;;43.13;24.80;;;;;;;;;;4992188;28;20033;-70
2022/01/24 07:48:18;;;;;;;42.80;25.38;;;;;;;;;;4992946;28;20419;-69
2022/01/24 07:50:47;;;;;;;41.17;24.60;;;;;;;;;;4997513;28;20133;-69
2022/01/24 07:53:18;;;;;;;44.67;24.75;;;;;;;;;;4993986;28;20048;-71
2022/01/24 07:55:43;;;;;;;45.05;25.98;;;;;;;;;;4996945;28;20023;-69
2022/01/24 07:58:09;;;;;;;40.50;25.33;;;;;;;;;;4993587;28;20085;-69
2022/01/24 08:00:37;;;;;;;45.00;25.92;;;;;;;;;;4997122;28;20065;-70
2022/01/24 08:03:08;;;;;;;44.20;26.23;;;;;;;;;;4994549;28;20034;-69
2022/01/24 08:05:36;;;;;;;44.40;26.13;;;;;;;;;;4994667;28;20312;-68
2022/01/24 08:08:03;;;;;;;44.63;25.13;;;;;;;;;;4993904;28;20022;-71
2022/01/24 08:10:31;;;;;;;39.58;24.40;;;;;;;;;;4993794;28;20102;-70
2022/01/24 08:12:59;;;;;;;43.15;24.77;;;;;;;;;;4981552;28;20041;-70
2022/01/24 08:15:24;;;;;;;40.17;24.23;;;;;;;;;;4976335;28;22540;-70
2022/01/24 08:17:50;;;;;;;41.30;24.20;;;;;;;;;;4992555;28;20052;-70
2022/01/24 08:20:18;;;;;;;47.10;26.77;;;;;;;;;;4992793;28;20371;-70
2022/01/24 08:22:44;;;;;;;44.58;25.60;;;;;;;;;;4993519;28;20553;-71
2022/01/24 08:25:11;;;;;;;49.78;28.35;;;;;;;;;;4994193;28;20537;-70
2022/01/24 08:27:36;;;;;;;50.97;28.45;;;;;;;;;;4993011;28;20640;-70
2022/01/24 08:30:07;;;;;;;51.25;29.48;;;;;;;;;;4997307;28;20180;-70
2022/01/24 08:32:32;;;;;;;53.05;29.77;;;;;;;;;;4993173;28;20085;-69
2022/01/24 08:34:58;;;;;;;51.35;30.25;;;;;;;;;;4993223;28;20104;-69
2022/01/24 08:37:24;;;;;;;55.13;30.85;;;;;;;;;;4993189;28;20251;-69
2022/01/24 08:39:51;;;;;;;53.55;30.45;;;;;;;;;;4993099;28;20489;-69
2022/01/24 08:42:25;;;;;;;50.83;30.40;;;;;;;;;;4989467;28;20026;-69
2022/01/24 08:47:31;;;;;;;55.25;31.05;;;;;;;;;;4990549;28;20030;-69
2022/01/24 08:49:58;;;;;;;56.90;30.52;;;;;;;;;;4993238;28;20061;-70
2022/01/24 08:52:24;;;;;;;68.45;34.75;;;;;;;;;;4993910;28;20037;-68
2022/01/24 08:54:49;;;;;;;56.45;30.23;;;;;;;;;;4989869;28;20047;-68
2022/01/24 08:57:21;;;;;;;55.33;29.35;;;;;;;;;;4988237;28;20229;-69
2022/01/24 08:59:49;;;;;;;56.50;30.95;;;;;;;;;;4989503;28;20042;-69
2022/01/24 09:02:15;;;;;;;54.83;30.10;;;;;;;;;;4990470;28;20537;-69
2022/01/24 09:04:40;;;;;;;56.83;30.50;;;;;;;;;;4989854;28;20027;-69
2022/01/24 09:07:06;;;;;;;58.53;31.20;;;;;;;;;;4989242;28;20064;-69
2022/01/24 09:09:34;;;;;;;54.17;30.55;;;;;;;;;;4989732;28;20042;-69
2022/01/24 09:12:00;;;;;;;52.83;30.65;;;;;;;;;;4989407;28;20030;-70
2022/01/24 09:14:25;;;;;;;57.78;32.88;;;;;;;;;;4992486;28;20027;-69
2022/01/24 09:16:51;;;;;;;56.30;32.30;;;;;;;;;;4989057;28;20068;-69
2022/01/24 09:19:16;;;;;;;56.97;32.28;;;;;;;;;;4988856;28;20559;-69
2022/01/24 09:21:44;;;;;;;54.85;32.55;;;;;;;;;;4988746;28;20156;-69
2022/01/24 09:24:09;;;;;;;57.33;33.63;;;;;;;;;;4990344;28;20745;-69
2022/01/24 09:26:38;;;;;;;54.88;33.22;;;;;;;;;;4988693;28;20288;-69
2022/01/24 09:29:03;;;;;;;60.08;35.22;;;;;;;;;;4993198;28;20065;-70
2022/01/24 09:31:29;;;;;;;57.25;34.63;;;;;;;;;;4989216;28;20037;-69
2022/01/24 09:33:54;;;;;;;63.88;35.17;;;;;;;;;;4993126;28;20042;-68
2022/01/24 09:36:20;;;;;;;61.60;34.10;;;;;;;;;;4989749;28;20073;-69
2022/01/24 09:38:45;;;;;;;62.67;34.05;;;;;;;;;;4988302;28;20104;-72
2022/01/24 09:41:13;;;;;;;58.22;33.35;;;;;;;;;;4989201;28;20061;-69
2022/01/24 09:43:38;;;;;;;66.15;34.47;;;;;;;;;;4987493;28;20049;-70
2022/01/24 09:46:08;;;;;;;56.38;32.55;;;;;;;;;;4988924;28;20030;-69
2022/01/24 09:48:36;;;;;;;54.20;31.90;;;;;;;;;;4988604;28;20044;-69
2022/01/24 09:51:02;;;;;;;56.22;32.88;;;;;;;;;;4988516;28;20070;-69
2022/01/24 09:53:27;;;;;;;57.45;32.88;;;;;;;;;;4991298;28;20547;-69
2022/01/24 09:55:52;;;;;;;58.00;32.75;;;;;;;;;;4987329;28;20038;-70
2022/01/24 09:58:18;;;;;;;57.28;33.05;;;;;;;;;;4988417;28;22695;-70
2022/01/24 10:00:44;;;;;;;60.92;33.47;;;;;;;;;;4988960;28;20029;-70
2022/01/24 10:03:12;;;;;;;59.58;34.78;;;;;;;;;;4976822;28;20121;-70
2022/01/24 10:05:42;;;;;;;64.95;35.10;;;;;;;;;;4988336;28;20169;-70
2022/01/24 10:08:12;;;;;;;62.72;34.13;;;;;;;;;;4989780;28;20128;-69
2022/01/24 10:10:51;;;;;;;61.30;34.13;;;;;;;;;;4989066;28;20056;-68
2022/01/24 10:16:25;;;;;;;60.97;32.92;;;;;;;;;;4987962;28;20623;-69
2022/01/24 10:18:57;;;;;;;88.68;39.63;;;;;;;;;;4988306;28;20055;-69
2022/01/24 10:21:25;;;;;;;63.78;34.90;;;;;;;;;;4988656;28;20157;-75
2022/01/24 10:23:56;;;;;;;63.40;33.65;;;;;;;;;;4989196;28;20552;-74
2022/01/24 10:26:23;;;;;;;54.38;32.35;;;;;;;;;;4977002;28;20042;-69
2022/01/24 10:28:49;;;;;;;59.17;33.38;;;;;;;;;;4987889;28;20052;-69
2022/01/24 10:31:24;;;;;;;63.92;34.05;;;;;;;;;;4987981;28;20037;-69
2022/01/24 10:33:53;;;;;;;66.75;36.70;;;;;;;;;;4987867;28;20046;-69
2022/01/24 10:36:33;;;;;;;59.60;35.72;;;;;;;;;;4988499;28;20029;-69
2022/01/24 10:39:10;;;;;;;64.15;35.50;;;;;;;;;;4988386;28;20762;-69
2022/01/24 10:41:52;;;;;;;62.92;36.38;;;;;;;;;;4987675;28;20057;-69
2022/01/24 10:44:30;;;;;;;77.57;37.63;;;;;;;;;;4988311;28;20037;-69
2022/01/24 10:47:10;;;;;;;68.05;37.13;;;;;;;;;;4988223;28;20033;-71
2022/01/24 10:49:35;;;;;;;62.85;36.38;;;;;;;;;;4987419;28;20105;-70
2022/01/24 10:52:10;;;;;;;60.50;34.20;;;;;;;;;;4975515;28;20080;-70
2022/01/24 10:54:36;;;;;;;66.13;35.40;;;;;;;;;;4987367;28;20037;-71
2022/01/24 10:57:01;;;;;;;77.28;38.20;;;;;;;;;;4987986;28;20033;-70
2022/01/24 10:59:27;;;;;;;83.00;39.40;;;;;;;;;;4987350;28;20489;-70
2022/01/24 11:01:53;;;;;;;81.35;39.55;;;;;;;;;;4987384;28;20041;-70
2022/01/24 11:04:19;;;;;;;79.93;41.25;;;;;;;;;;4986691;28;20029;-71
2022/01/24 11:06:51;;;;;;;70.30;38.40;;;;;;;;;;4987757;28;20128;-70
2022/01/24 11:09:19;;;;;;;72.60;38.75;;;;;;;;;;4986326;28;20026;-70
2022/01/24 11:11:47;;;;;;;68.65;37.95;;;;;;;;;;4987521;28;20022;-70
2022/01/24 11:14:16;;;;;;;72.20;38.35;;;;;;;;;;5002209;28;20025;-70
2022/01/24 11:16:42;;;;;;;75.13;39.83;;;;;;;;;;4986958;28;20506;-69
2022/01/24 11:19:22;;;;;;;72.40;40.63;;;;;;;;;;4987073;28;20034;-69
2022/01/24 11:21:51;;;;;;;113.90;46.33;;;;;;;;;;4986996;28;20030;-70
2022/01/24 11:24:20;;;;;;;121.97;48.40;;;;;;;;;;4987555;28;20044;-69
2022/01/24 11:26:48;;;;;;;74.32;38.97;;;;;;;;;;4987123;28;20053;-69
2022/01/24 11:29:18;;;;;;;67.03;38.88;;;;;;;;;;4987036;28;20036;-70
2022/01/24 11:31:46;;;;;;;71.88;39.67;;;;;;;;;;4986822;28;20050;-70
2022/01/24 11:34:18;;;;;;;75.53;39.42;;;;;;;;;;4986241;28;20035;-70
2022/01/24 11:36:46;;;;;;;70.97;40.88;;;;;;;;;;4986756;28;20189;-70
2022/01/24 11:39:11;;;;;;;69.20;40.80;;;;;;;;;;4987669;28;20033;-70
2022/01/24 11:41:41;;;;;;;69.10;41.17;;;;;;;;;;4985826;28;20062;-70
2022/01/24 11:44:09;;;;;;;71.32;39.78;;;;;;;;;;4987123;28;20156;-70
2022/01/24 11:46:41;;;;;;;66.95;39.88;;;;;;;;;;4987107;28;20030;-70
2022/01/24 11:49:11;;;;;;;73.50;40.40;;;;;;;;;;4986170;28;20026;-70
2022/01/24 11:51:40;;;;;;;67.85;39.65;;;;;;;;;;4987364;28;20068;-68
2022/01/24 11:54:30;;;;;;;64.57;38.92;;;;;;;;;;4985255;28;20022;-70
2022/01/24 11:57:14;;;;;;;68.35;39.28;;;;;;;;;;5002423;28;20036;-69
2022/01/24 11:59:41;;;;;;;70.25;39.75;;;;;;;;;;4986815;28;20076;-69
2022/01/24 12:02:08;;;;;;;67.00;39.30;;;;;;;;;;4987201;28;20726;-68
2022/01/24 12:04:53;;;;;;;69.63;39.72;;;;;;;;;;4984810;28;20825;-69
2022/01/24 12:07:28;;;;;;;68.60;40.28;;;;;;;;;;5001642;28;20097;-74
2022/01/24 12:09:53;;;;;;;;;;;;;;;;;;4987052;28;20037;-69
2022/01/24 12:12:38;;;;;;;70.38;39.17;;;;;;;;;;4986786;28;19927;-70
2022/01/24 12:15:10;;;;;;;69.65;38.95;;;;;;;;;;4986095;28;20098;-69
2022/01/24 12:17:44;;;;;;;70.82;39.35;;;;;;;;;;4989262;28;20098;-69
2022/01/24 12:20:28;;;;;;;73.70;39.47;;;;;;;;;;4994093;28;20030;-70
2022/01/24 12:22:53;;;;;;;69.70;38.90;;;;;;;;;;4990950;28;20216;-70
2022/01/24 12:25:19;;;;;;;70.38;40.53;;;;;;;;;;4990418;28;20451;-69
2022/01/24 12:28:02;;;;;;;73.00;40.80;;;;;;;;;;4990611;28;20060;-69
2022/01/24 12:30:47;;;;;;;73.95;41.25;;;;;;;;;;4993781;28;20182;-69
2022/01/24 12:33:27;;;;;;;72.00;39.97;;;;;;;;;;4993935;28;20050;-68
2022/01/24 12:35:52;;;;;;;65.78;38.80;;;;;;;;;;4991052;28;20052;-69
2022/01/24 12:38:18;;;;;;;68.50;39.17;;;;;;;;;;4977846;28;20490;-70
2022/01/24 12:40:47;;;;;;;68.50;39.67;;;;;;;;;;4989836;28;20110;-70
2022/01/24 12:43:19;;;;;;;75.72;41.72;;;;;;;;;;4990054;28;20037;-69
2022/01/24 12:48:29;;;;;;;75.38;41.72;;;;;;;;;;4993559;28;20065;-70
2022/01/24 12:50:54;;;;;;;76.97;41.35;;;;;;;;;;4990661;28;20041;-70
2022/01/24 12:53:21;;;;;;;79.90;44.50;;;;;;;;;;4977277;28;20033;-70
2022/01/24 12:55:55;;;;;;;74.72;41.30;;;;;;;;;;4989663;28;20486;-71
2022/01/24 12:58:50;;;;;;;74.20;40.97;;;;;;;;;;4989932;28;20064;-70
2022/01/24 13:01:27;;;;;;;70.78;40.63;;;;;;;;;;4980531;28;20129;-69
2022/01/24 13:04:00;;;;;;;79.43;40.00;;;;;;;;;;4988524;28;20033;-69
2022/01/24 13:06:26;;;;;;;70.65;40.35;;;;;;;;;;4990324;28;20555;-70
2022/01/24 13:08:56;;;;;;;75.13;40.80;;;;;;;;;;4989229;28;20052;-70
2022/01/24 13:11:21;;;;;;;80.55;42.03;;;;;;;;;;4993990;28;20691;-70
2022/01/24 13:14:11;;;;;;;77.60;41.40;;;;;;;;;;4989015;28;20025;-70
2022/01/24 13:22:23;;;;;;;77.78;41.28;;;;;;;;;;4989290;28;20099;-70
2022/01/24 13:25:05;;;;;;;72.30;40.45;;;;;;;;;;4993209;28;20061;-70
2022/01/24 13:27:51;;;;;;;72.90;39.92;;;;;;;;;;4988974;28;20038;-70
2022/01/24 13:30:33;;;;;;;73.32;40.20;;;;;;;;;;4973959;28;20371;-69
2022/01/24 13:33:03;;;;;;;69.85;38.55;;;;;;;;;;4999966;28;20053;-70
2022/01/24 13:35:32;;;;;;;74.07;42.60;;;;;;;;;;4989500;28;20026;-71
2022/01/24 13:37:57;;;;;;;73.40;41.63;;;;;;;;;;4989345;28;20200;-69
2022/01/24 13:40:40;;;;;;;72.63;40.97;;;;;;;;;;4987086;28;20523;-69
2022/01/24 13:43:11;;;;;;;76.47;40.58;;;;;;;;;;4987980;28;20068;-69
2022/01/24 13:45:43;;;;;;;74.00;40.13;;;;;;;;;;4976912;28;20046;-70
2022/01/24 13:48:21;;;;;;;74.20;40.90;;;;;;;;;;4993098;28;20045;-69
2022/01/24 13:50:51;;;;;;;70.88;39.03;;;;;;;;;;4989116;28;20026;-68
2022/01/24 13:53:32;;;;;;;74.07;42.28;;;;;;;;;;4992153;28;20681;-70
2022/01/24 13:56:00;;;;;;;71.30;40.00;;;;;;;;;;4989490;28;20030;-70
2022/01/24 13:58:26;;;;;;;72.57;40.03;;;;;;;;;;4988967;28;20080;-69
2022/01/24 14:00:56;;;;;;;80.85;40.67;;;;;;;;;;4988463;28;20034;-70
2022/01/24 14:03:21;;;;;;;78.57;41.08;;;;;;;;;;4991872;28;20402;-70
2022/01/24 14:05:49;;;;;;;75.20;40.60;;;;;;;;;;4988674;28;20037;-70
2022/01/24 14:08:15;;;;;;;74.65;39.95;;;;;;;;;;4991578;28;20029;-71
2022/01/24 14:10:41;;;;;;;77.30;40.58;;;;;;;;;;4988371;28;20026;-70
2022/01/24 14:13:07;;;;;;;75.35;39.70;;;;;;;;;;4975464;28;20049;-70
2022/01/24 14:15:52;;;;;;;75.30;40.38;;;;;;;;;;4992429;28;20402;-69
2022/01/24 14:18:28;;;;;;;72.82;40.53;;;;;;;;;;4991845;28;20080;-70
2022/01/24 14:20:55;;;;;;;76.55;42.40;;;;;;;;;;4987720;28;20621;-70
2022/01/24 14:23:39;;;;;;;70.20;40.42;;;;;;;;;;5003105;28;20109;-70
2022/01/24 14:26:14;;;;;;;67.75;40.30;;;;;;;;;;5002945;28;20029;-70
2022/01/24 14:28:39;;;;;;;71.25;42.08;;;;;;;;;;4987905;28;20030;-70
2022/01/24 14:31:05;;;;;;;71.60;41.47;;;;;;;;;;4988109;28;20046;-70
2022/01/24 14:33:34;;;;;;;73.57;42.47;;;;;;;;;;4991788;28;20100;-69
2022/01/24 14:36:00;;;;;;;73.85;41.85;;;;;;;;;;4988155;28;20121;-70
2022/01/24 14:38:28;;;;;;;71.88;40.38;;;;;;;;;;4987341;28;20050;-70
2022/01/24 14:40:56;;;;;;;72.50;40.75;;;;;;;;;;4987391;28;20030;-70
2022/01/24 14:46:09;;;;;;;79.35;42.95;;;;;;;;;;4987377;28;20176;-69
2022/01/24 14:48:48;;;;;;;74.70;43.47;;;;;;;;;;4987196;28;20022;-71
2022/01/24 14:51:14;;;;;;;76.50;43.70;;;;;;;;;;4988369;28;20036;-70
2022/01/24 14:53:40;;;;;;;79.80;42.65;;;;;;;;;;4987850;28;20441;-70
2022/01/24 14:56:06;;;;;;;76.82;42.60;;;;;;;;;;4970361;28;20030;-70
2022/01/24 14:58:31;;;;;;;71.82;41.40;;;;;;;;;;4990991;28;20029;-70
2022/01/24 15:00:57;;;;;;;74.38;42.28;;;;;;;;;;4975277;28;20346;-70
2022/01/24 15:03:22;;;;;;;76.20;42.28;;;;;;;;;;4987206;28;20076;-70
2022/01/24 15:05:48;;;;;;;77.13;42.80;;;;;;;;;;4987911;28;20031;-71
2022/01/24 15:08:15;;;;;;;74.75;42.55;;;;;;;;;;4991353;28;20572;-70
2022/01/24 15:10:43;;;;;;;71.95;41.15;;;;;;;;;;4985107;28;20606;-70
2022/01/24 15:13:10;;;;;;;78.55;45.35;;;;;;;;;;4990827;28;20117;-70
2022/01/24 15:15:41;;;;;;;67.97;40.10;;;;;;;;;;4975669;28;20065;-70
2022/01/24 15:26:18;;;;;;;76.53;42.45;;;;;;;;;;4987833;28;20415;-69
2022/01/24 15:28:43;;;;;;;84.32;43.88;;;;;;;;;;4990929;28;20037;-69
2022/01/24 15:31:08;;;;;;;82.15;44.22;;;;;;;;;;4954940;28;20139;-71
2022/01/24 15:33:34;;;;;;;74.93;41.17;;;;;;;;;;4989233;28;20142;-70
2022/01/24 15:35:59;;;;;;;78.63;43.85;;;;;;;;;;4975134;28;20101;-70
2022/01/24 15:38:27;;;;;;;75.38;42.17;;;;;;;;;;4987535;28;20117;-69
2022/01/24 15:40:54;;;;;;;77.32;42.15;;;;;;;;;;4987197;28;20046;-70
2022/01/24 15:46:33;;;;;;;80.82;43.03;;;;;;;;;;4991290;28;20374;-70
2022/01/24 15:48:48;;;;;;;81.10;45.40;;;;;;;;;;4986488;28;20171;-69
2022/01/24 15:51:21;;;;;;;78.70;43.17;;;;;;;;;;4990196;28;20026;-70
2022/01/24 15:53:50;;;;;;;79.13;43.95;;;;;;;;;;4990062;28;20107;-69
2022/01/24 15:57:39;;;;;;;78.85;45.15;;;;;;;;;;4990232;28;20487;-69
2022/01/24 15:59:07;;;;;;;88.60;49.55;;;;;;;;;;4981674;28;20038;-69
2022/01/24 16:01:33;;;;;;;84.00;46.78;;;;;;;;;;4991104;28;20489;-69
2022/01/24 16:04:01;;;;;;;81.53;46.30;;;;;;;;;;4991473;28;20030;-69
2022/01/24 16:06:26;;;;;;;82.07;47.50;;;;;;;;;;4990923;28;20034;-69
2022/01/24 16:08:52;;;;;;;83.55;45.75;;;;;;;;;;4991167;28;20033;-69
2022/01/24 16:11:19;;;;;;;83.50;44.55;;;;;;;;;;4993900;28;20071;-69
2022/01/24 16:13:47;;;;;;;80.32;45.70;;;;;;;;;;4990980;28;20861;-70